createdAt,value
2018-08-30T00:00:47.950Z,97078.38
2018-08-30T00:05:42.894Z,97078.37
2018-08-30T00:10:37.668Z,97075.97
2018-08-30T00:15:32.274Z,97088.19
2018-08-30T00:20:26.836Z,97082.37
2018-08-30T00:25:21.311Z,97082.34
2018-08-30T00:30:15.839Z,97079.95
2018-08-30T00:35:10.352Z,97079.69
2018-08-30T00:40:05.004Z,97080.23
2018-08-30T00:45:00.080Z,97085.79
2018-08-30T00:49:54.635Z,97085.00
2018-08-30T00:54:49.189Z,97093.25
2018-08-30T00:59:43.713Z,97092.45
2018-08-30T01:04:38.468Z,97093.02
2018-08-30T01:09:33.000Z,97107.63
2018-08-30T01:14:27.535Z,97111.87
2018-08-30T01:19:22.063Z,97111.88
2018-08-30T01:24:16.644Z,97111.59
2018-08-30T01:29:11.220Z,97123.55
2018-08-30T01:34:05.925Z,97125.89
2018-08-30T01:39:00.453Z,97130.40
2018-08-30T01:43:54.986Z,97148.14
2018-08-30T01:48:49.596Z,97138.01
2018-08-30T01:53:44.159Z,97142.53
2018-08-30T01:58:38.710Z,97135.08
2018-08-30T02:03:33.213Z,97132.19
2018-08-30T02:08:27.686Z,97129.27
2018-08-30T02:13:22.209Z,97135.64
2018-08-30T02:18:16.902Z,97133.58
2018-08-30T02:23:11.419Z,97131.23
2018-08-30T02:28:06.234Z,97131.23
2018-08-30T02:33:00.745Z,97128.81
2018-08-30T02:37:55.224Z,97123.19
2018-08-30T02:42:49.760Z,97125.79
2018-08-30T02:47:44.304Z,97127.60
2018-08-30T02:52:38.782Z,97139.33
2018-08-30T02:57:33.304Z,97147.78
2018-08-30T03:02:27.820Z,97143.25
2018-08-30T03:07:22.328Z,97144.35
2018-08-30T03:12:16.852Z,97146.47
2018-08-30T03:17:11.341Z,97141.96
2018-08-30T03:22:05.889Z,97148.33
2018-08-30T03:27:00.371Z,97149.94
2018-08-30T03:31:54.877Z,97149.93
2018-08-30T03:36:49.389Z,97149.95
2018-08-30T03:41:43.976Z,97145.97
2018-08-30T03:46:38.510Z,97149.45
2018-08-30T03:51:33.052Z,97147.84
2018-08-30T03:56:27.597Z,97148.36
2018-08-30T04:01:22.129Z,97136.70
2018-08-30T04:06:16.733Z,97145.98
2018-08-30T04:11:11.232Z,97154.22
2018-08-30T04:16:05.795Z,97148.17
2018-08-30T04:21:00.428Z,97140.95
2018-08-30T04:25:54.957Z,97138.55
2018-08-30T04:30:49.452Z,97148.89
2018-08-30T04:35:43.989Z,97149.41
2018-08-30T04:40:38.532Z,97157.06
2018-08-30T04:45:33.129Z,97157.07
2018-08-30T04:50:27.753Z,97164.19
2018-08-30T04:55:22.308Z,97166.25
2018-08-30T05:00:16.864Z,97167.11
2018-08-30T05:05:11.433Z,97168.97
2018-08-30T05:10:06.238Z,97174.84
2018-08-30T05:15:00.728Z,97181.37
2018-08-30T05:19:55.350Z,97187.14
2018-08-30T05:24:49.908Z,97185.54
2018-08-30T05:29:44.486Z,97193.87
2018-08-30T05:34:39.075Z,97203.41
2018-08-30T05:39:33.577Z,97207.05
2018-08-30T05:44:28.138Z,97207.61
2018-08-30T05:49:22.701Z,97215.00
2018-08-30T05:54:17.280Z,97221.59
2018-08-30T05:59:12.062Z,97226.63
2018-08-30T06:04:10.612Z,97234.23
2018-08-30T06:09:06.517Z,97229.64
2018-08-30T06:14:01.900Z,97243.35
2018-08-30T06:18:56.565Z,97236.61
2018-08-30T06:23:51.195Z,97247.80
2018-08-30T06:28:45.858Z,97244.98
2018-08-30T06:33:40.392Z,97247.39
2018-08-30T06:38:35.035Z,97252.05
2018-08-30T06:43:29.596Z,97257.47
2018-08-30T06:48:24.224Z,97262.88
2018-08-30T06:53:18.881Z,97267.61
2018-08-30T06:58:13.446Z,97261.91
2018-08-30T07:03:08.337Z,97266.79
2018-08-30T07:08:03.083Z,97274.32
2018-08-30T07:12:57.742Z,97275.22
2018-08-30T07:17:52.669Z,97271.76
2018-08-30T07:22:47.213Z,97282.38
2018-08-30T07:27:48.767Z,97282.94
2018-08-30T07:32:43.744Z,97286.45
2018-08-30T07:37:38.397Z,97288.63
2018-08-30T07:42:33.196Z,97286.30
2018-08-30T07:47:28.230Z,97290.34
2018-08-30T07:52:23.224Z,97294.84
2018-08-30T07:57:17.904Z,97293.53
2018-08-30T08:02:12.517Z,97299.92
2018-08-30T08:07:07.368Z,97297.25
2018-08-30T08:12:01.998Z,97299.91
2018-08-30T08:16:57.144Z,97312.44
2018-08-30T08:21:52.061Z,97313.78
2018-08-30T08:26:47.302Z,97306.83
2018-08-30T08:31:42.369Z,97316.94
2018-08-30T08:36:37.294Z,97319.60
2018-08-30T08:41:32.813Z,97323.59
2018-08-30T08:46:32.500Z,97311.63
2018-08-30T08:51:27.429Z,97321.64
2018-08-30T08:56:25.279Z,97320.38
2018-08-30T09:01:20.896Z,97325.63
2018-08-30T09:06:16.975Z,97328.30
2018-08-30T09:11:12.194Z,97328.50
2018-08-30T09:16:07.725Z,97335.70
2018-08-30T09:21:03.393Z,97336.25
2018-08-30T09:26:05.947Z,97333.83
2018-08-30T09:31:02.324Z,97333.39
2018-08-30T09:35:57.020Z,97334.40
2018-08-30T09:40:51.861Z,97334.08
2018-08-30T09:46:01.092Z,97329.33
2018-08-30T09:50:55.944Z,97333.73
2018-08-30T09:55:50.827Z,97337.20
2018-08-30T10:00:50.501Z,97339.32
2018-08-30T10:05:45.200Z,97347.56
2018-08-30T10:10:50.793Z,97337.98
2018-08-30T10:15:57.803Z,97333.97
2018-08-30T10:20:58.902Z,97337.20
2018-08-30T10:26:05.741Z,97332.39
2018-08-30T10:31:14.425Z,97333.45
2018-08-30T10:36:23.084Z,97336.38
2018-08-30T10:41:32.881Z,97332.38
2018-08-30T10:46:45.360Z,97331.83
2018-08-30T10:51:53.295Z,97333.81
2018-08-30T10:57:00.653Z,97332.70
2018-08-30T11:02:08.314Z,97325.57
2018-08-30T11:07:14.519Z,97319.72
2018-08-30T11:12:22.865Z,97320.03
2018-08-30T11:17:32.978Z,97312.14
2018-08-30T11:22:39.035Z,97312.36
2018-08-30T11:27:42.979Z,97313.88
2018-08-30T11:32:43.599Z,97312.14
2018-08-30T11:37:45.297Z,97311.88
2018-08-30T11:42:51.025Z,97318.86
2018-08-30T11:47:54.292Z,97317.63
2018-08-30T11:52:49.464Z,97319.45
2018-08-30T11:57:44.524Z,97322.03
2018-08-30T12:02:41.834Z,97323.34
2018-08-30T12:07:36.693Z,97324.75
2018-08-30T12:12:33.002Z,97323.72
2018-08-30T12:17:33.163Z,97326.58
2018-08-30T12:22:37.413Z,97331.84
2018-08-30T12:27:32.279Z,97328.76
2018-08-30T12:32:26.970Z,97328.09
2018-08-30T12:37:25.702Z,97331.19
2018-08-30T12:42:20.826Z,97328.30
2018-08-30T12:47:15.858Z,97326.08
2018-08-30T12:52:10.948Z,97318.83
2018-08-30T12:57:06.946Z,97315.69
2018-08-30T13:02:03.072Z,97313.37
2018-08-30T13:06:58.199Z,97310.63
2018-08-30T13:11:53.244Z,97303.41
2018-08-30T13:16:47.998Z,97300.47
2018-08-30T13:21:42.800Z,97294.13
2018-08-30T13:26:37.435Z,97295.84
2018-08-30T13:31:32.473Z,97286.05
2018-08-30T13:36:27.423Z,97287.20
2018-08-30T13:41:22.742Z,97283.92
2018-08-30T13:46:25.536Z,97276.06
2018-08-30T13:51:20.792Z,97280.54
2018-08-30T13:56:15.894Z,97279.95
2018-08-30T14:01:11.015Z,97273.36
2018-08-30T14:06:05.408Z,97274.57
2018-08-30T14:11:00.740Z,97281.92
2018-08-30T14:15:55.233Z,97271.97
2018-08-30T14:20:49.928Z,97272.66
2018-08-30T14:25:44.711Z,97281.62
2018-08-30T14:30:39.569Z,97279.39
2018-08-30T14:35:34.250Z,97274.34
2018-08-30T14:40:28.903Z,97276.80
2018-08-30T14:45:23.640Z,97275.12
2018-08-30T14:50:18.167Z,97270.48
2018-08-30T14:55:13.494Z,97269.61
2018-08-30T15:00:08.350Z,97271.00
2018-08-30T15:05:03.053Z,97273.13
2018-08-30T15:09:57.776Z,97278.25
2018-08-30T15:14:52.816Z,97271.81
2018-08-30T15:19:48.598Z,97273.16
2018-08-30T15:24:43.114Z,97270.00
2018-08-30T15:29:38.550Z,97270.91
2018-08-30T15:34:33.827Z,97278.48
2018-08-30T15:39:28.799Z,97268.11
2018-08-30T15:44:25.066Z,97271.00
2018-08-30T15:49:20.563Z,97276.84
2018-08-30T15:54:15.799Z,97276.59
2018-08-30T15:59:11.175Z,97277.05
2018-08-30T16:04:06.921Z,97274.34
2018-08-30T16:09:01.684Z,97278.88
2018-08-30T16:13:56.522Z,97279.20
2018-08-30T16:18:51.944Z,97273.30
2018-08-30T16:23:47.079Z,97271.61
2018-08-30T16:28:41.821Z,97273.75
2018-08-30T16:33:38.692Z,97271.81
2018-08-30T16:38:34.979Z,97270.00
2018-08-30T16:48:33.488Z,97272.66
2018-08-30T16:53:32.258Z,97272.54
2018-08-30T16:58:27.292Z,97273.99
2018-08-30T17:03:22.817Z,97269.81
2018-08-30T17:08:18.096Z,97264.29
2018-08-30T17:13:12.803Z,97263.88
2018-08-30T17:18:08.621Z,97269.72
2018-08-30T17:23:03.433Z,97269.91
2018-08-30T17:27:58.447Z,97262.50
2018-08-30T17:32:53.137Z,97264.86
2018-08-30T17:37:48.149Z,97266.67
2018-08-30T17:42:42.834Z,97258.62
2018-08-30T17:47:40.978Z,97267.61
2018-08-30T17:52:36.736Z,97253.77
2018-08-30T17:57:33.118Z,97269.59
2018-08-30T18:02:27.905Z,97281.44
2018-08-30T18:07:22.704Z,97276.39
2018-08-30T18:12:17.542Z,97289.01
2018-08-30T18:17:12.213Z,97286.20
2018-08-30T18:22:07.159Z,97290.91
2018-08-30T18:27:01.912Z,97289.01
2018-08-30T18:31:56.949Z,97283.67
2018-08-30T18:36:51.624Z,97288.48
2018-08-30T18:41:46.544Z,97288.10
2018-08-30T18:46:41.457Z,97301.48
2018-08-30T18:51:36.238Z,97299.89
2018-08-30T18:56:30.946Z,97314.23
2018-08-30T19:01:25.697Z,97314.24
2018-08-30T19:06:20.421Z,97310.23
2018-08-30T19:11:15.041Z,97313.13
2018-08-30T19:16:14.857Z,97319.89
2018-08-30T19:21:09.844Z,97315.08
2018-08-30T19:26:04.594Z,97319.37
2018-08-30T19:30:59.333Z,97316.43
2018-08-30T19:35:59.186Z,97309.52
2018-08-30T19:40:59.176Z,97307.62
2018-08-30T19:45:53.925Z,97305.76
2018-08-30T19:50:48.647Z,97307.66
2018-08-30T19:55:43.463Z,97311.10
2018-08-30T20:00:38.171Z,97311.89
2018-08-30T20:05:32.918Z,97312.17
2018-08-30T20:10:27.532Z,97311.89
2018-08-30T20:15:22.368Z,97308.95
2018-08-30T20:20:17.865Z,97296.22
2018-08-30T20:25:12.804Z,97293.78
2018-08-30T20:30:07.718Z,97297.53
2018-08-30T20:35:02.391Z,97295.66
2018-08-30T20:39:57.121Z,97296.17
2018-08-30T20:44:51.885Z,97298.56
2018-08-30T20:49:46.573Z,97293.17
2018-08-30T20:54:41.379Z,97288.91
2018-08-30T20:59:36.216Z,97287.02
2018-08-30T21:04:30.995Z,97286.23
2018-08-30T21:09:25.765Z,97289.68
2018-08-30T21:14:20.366Z,97275.89
2018-08-30T21:19:15.098Z,97269.79
2018-08-30T21:24:09.748Z,97268.52
2018-08-30T21:29:04.461Z,97260.27
2018-08-30T21:33:59.110Z,97255.71
2018-08-30T21:38:53.849Z,97264.98
2018-08-30T21:43:48.409Z,97254.61
2018-08-30T21:48:43.075Z,97244.77
2018-08-30T21:53:37.624Z,97247.92
2018-08-30T21:58:32.204Z,97248.20
2018-08-30T22:03:26.883Z,97246.87
2018-08-30T22:08:21.545Z,97229.53
2018-08-30T22:13:16.407Z,97239.85
2018-08-30T22:18:11.489Z,97232.05
2018-08-30T22:23:06.521Z,97242.36
2018-08-30T22:28:01.466Z,97236.13
2018-08-30T22:32:56.062Z,97240.73
2018-08-30T22:37:50.718Z,97228.55
2018-08-30T22:42:45.293Z,97220.28
2018-08-30T22:47:39.989Z,97220.58
2018-08-30T22:52:34.780Z,97220.33
2018-08-30T22:57:29.876Z,97217.30
2018-08-30T23:02:24.507Z,97222.34
2018-08-30T23:07:19.099Z,97215.70
2018-08-30T23:12:13.772Z,97204.56
2018-08-30T23:17:08.467Z,97202.11
2018-08-30T23:22:03.173Z,97218.22
2018-08-30T23:26:57.845Z,97209.79
2018-08-30T23:31:52.799Z,97204.80
2018-08-30T23:36:47.477Z,97208.77
2018-08-30T23:41:42.085Z,97211.86
2018-08-30T23:46:37.148Z,97204.55
2018-08-30T23:51:31.767Z,97201.36
2018-08-30T23:56:26.419Z,97201.01
